High Gate, Missouri
Current Conditions -  °F | °C
As of 5:53 AM on Sunday 25 Jan 2015 (Local Time) from KVIH Reporting Station
Overcast Overcast  
Wind Chill: 39°   Ceiling: 1500
Heat Index: 45°   Visibility: 10mi
Dew Point: 40°   Wind: 13mph
Humidity: 82%   Direction: 260°W
Pressure: 29.59"   Gusts: NA
Location:  37.9936°N, 91.5964°W
Report Text: KVIH 251153Z AUTO 26011KT 10SM BKN015 OVC035 07/04 A2959 RMK AO2 SLP019 60000 T00720044 10094 20061 56006
Loading
Personal Weather Stations






























Interactive Weather Map New forecast layout! Learn more

10-Day Weather Forecast

Advertisements
Track Severe Weather on mobile